aviador You're here:

LFBC Decoded Metar

CAZAUX in FRANCE
Report Time2018-01-17 20:00:00
UTC Time2018-01-17 20:17:41
Flight Rules vfr VFR
Wind260° at 06 kt
W.Decomp.*RWY 24: 5.6 kt HW 2.2 kt RCW
W.Rank260° ranks 11
Current wind is below 260° avg. (7.8)
Visibility9999 m
Phenomena:N/A
Clouds:Few 032 Hf
Expected CloudBase > 1,600 ft AGL from Temp-Dew spread
CeilingNone
Temp09°C (ISA -6)
Dew Point05°C (76% RH)
AAT5.7°C
QNH1026 hPa
Density Alt-906 ft
Elevation108 ft
Report Wrong Elevation
Raw Report
LFBC 172000Z AUTO 26006KT 9999 FEW032 09/05 Q1026=

Extra information for LFBC:More info

Metar Taf Metar & Taf Last 4 Metars F.Rules Stats Wind Profile Meteogram Temp Stats Airport Information Weather charts Add Link Nearby VenuesMetar ALERT Operation Metar Decoded Social comments